Terminal Aerodrome Forecast
Issued by NWS

Home | Current Version | Previous Version | Text Only | Print | Product List | Glossary On
Versions: 1 2 3 4 5 6 7 8 9 10 11 12 13 14 15 16 17 18 19 20 21 22 23
000
FTUS41 KCAR 300608 CCA
TAFFVE
TAF COR
KFVE 300608Z 3006/3106 16007KT P6SM SCT120 BKN250
     FM301300 19009KT P6SM SCT090 BKN200
     FM301800 20013G22KT P6SM VCTS SCT035CB BKN070
     FM302200 21013KT 6SM SHRA VCTS SCT015CB OVC030
     FM310000 21012KT 3SM SHRA OVC022 WS020/26035KT
     FM310400 29009KT 3SM RA BR OVC008=

USA.gov is the U.S. government's official web portal to all federal, state and local government web resources and services.